Time;durP1;ratioP1;P1;durP2;ratioP2;P2;SDS_P1;SDS_P2;PMS_P1;PMS_P2;Temp;Humidity;BMP_temperature;BMP_pressure;BME280_temperature;BME280_humidity;BME280_pressure;Samples;Min_cycle;Max_cycle;Signal;HPM_P1;HPM_P2
2022/01/19 00:01:08;;;;;;;;;;;;;;;20.35;40.28;103096.66;4953539;28;19927;-79
2022/01/19 00:03:33;;;;;;;;;;;;;;;20.33;40.27;103080.44;4956610;28;19929;-79
2022/01/19 00:05:59;;;;;;;;;;;;;;;20.32;40.37;103079.59;4956214;28;19922;-79
2022/01/19 00:08:26;;;;;;;;;;;;;;;20.32;40.13;103084.28;4954362;28;19926;-79
2022/01/19 00:10:51;;;;;;;;;;;;;;;20.31;40.15;103079.88;4955770;28;19922;-79
2022/01/19 00:13:17;;;;;;;;;;;;;;;20.30;40.05;103073.53;4970317;28;20028;-79
2022/01/19 00:15:42;;;;;;;;;;;;;;;20.30;40.19;103078.19;4955246;28;19922;-79
2022/01/19 00:18:07;;;;;;;;;;;;;;;20.29;40.37;103071.88;4951440;29;19923;-80
2022/01/19 00:20:34;;;;;;;;;;;;;;;20.28;40.12;103064.72;4944164;29;19926;-78
2022/01/19 00:22:59;;;;;;;;;;;;;;;20.28;40.32;103063.88;4955522;28;19923;-79
2022/01/19 00:25:25;;;;;;;;;;;;;;;20.27;40.24;103054.84;4953551;29;19993;-78
2022/01/19 00:27:50;;;;;;;;;;;;;;;20.26;40.32;103049.59;4950233;29;19918;-79
2022/01/19 00:30:16;;;;;;;;;;;;;;;20.25;40.02;103029.56;4944768;29;19923;-79
2022/01/19 00:32:41;;;;;;;;;;;;;;;20.24;40.15;103019.66;4958982;28;19922;-78
2022/01/19 00:35:09;;;;;;;;;;;;;;;20.23;40.07;102996.03;4955465;28;19926;-78
2022/01/19 00:37:34;;;;;;;;;;;;;;;20.22;40.00;102996.31;4954626;28;19919;-79
2022/01/19 00:40:03;;;;;;;;;;;;;;;20.22;40.04;102983.41;4968504;28;20202;-78
2022/01/19 00:42:28;;;;;;;;;;;;;;;20.20;40.03;102977.34;4956725;28;19989;-79
2022/01/19 00:44:53;;;;;;;;;;;;;;;20.19;39.88;102981.19;4952758;29;20371;-79
2022/01/19 00:47:18;;;;;;;;;;;;;;;20.16;40.07;102976.19;4950396;28;19929;-79
2022/01/19 00:49:45;;;;;;;;;;;;;;;20.16;39.92;102986.31;4953348;28;19970;-79
2022/01/19 00:52:10;;;;;;;;;;;;;;;20.15;39.78;102984.69;4952481;29;19931;-78
2022/01/19 00:54:36;;;;;;;;;;;;;;;20.14;39.94;102980.28;4969924;28;19922;-79
2022/01/19 00:57:01;;;;;;;;;;;;;;;20.13;39.83;102982.16;4954799;28;20287;-78
2022/01/19 00:59:27;;;;;;;;;;;;;;;20.12;39.70;102976.97;4953908;28;19969;-79
2022/01/19 01:01:52;;;;;;;;;;;;;;;20.11;39.92;102973.38;4953202;28;19927;-79
2022/01/19 01:04:17;;;;;;;;;;;;;;;20.10;39.81;102979.94;4953198;29;19951;-79
2022/01/19 01:06:43;;;;;;;;;;;;;;;20.09;39.97;102975.56;4953581;29;19926;-79
2022/01/19 01:09:08;;;;;;;;;;;;;;;20.07;39.97;102966.72;4953356;29;19929;-78
2022/01/19 01:11:36;;;;;;;;;;;;;;;20.06;39.94;102965.91;4966796;28;20361;-79
2022/01/19 01:16:40;;;;;;;;;;;;;;;20.04;39.74;102954.34;4952576;29;19926;-79
2022/01/19 01:19:07;;;;;;;;;;;;;;;20.04;39.73;102937.06;4954446;28;19934;-78
2022/01/19 01:21:33;;;;;;;;;;;;;;;20.04;39.67;102926.09;4954425;28;19919;-78
2022/01/19 01:23:58;;;;;;;;;;;;;;;20.03;39.86;102921.66;4953926;28;19933;-78
2022/01/19 01:26:24;;;;;;;;;;;;;;;20.03;39.59;102927.16;4954738;28;20290;-78
2022/01/19 01:28:49;;;;;;;;;;;;;;;20.02;39.62;102920.03;4952212;28;19929;-78
2022/01/19 01:31:15;;;;;;;;;;;;;;;20.01;39.66;102910.97;4954271;28;19973;-78
2022/01/19 01:33:40;;;;;;;;;;;;;;;20.01;39.62;102901.91;4954490;28;19922;-78
2022/01/19 01:36:06;;;;;;;;;;;;;;;20.00;39.60;102901.06;4968954;28;19945;-78
2022/01/19 01:38:32;;;;;;;;;;;;;;;19.99;39.85;102895.84;4951547;29;20005;-78
2022/01/19 01:40:57;;;;;;;;;;;;;;;19.98;39.77;102897.78;4952247;29;19922;-78
2022/01/19 01:43:23;;;;;;;;;;;;;;;19.97;39.73;102893.34;4937266;29;19969;-78
2022/01/19 01:45:53;;;;;;;;;;;;;;;19.95;39.67;102887.28;4952484;28;20363;-79
2022/01/19 01:48:21;;;;;;;;;;;;;;;19.95;39.50;102887.28;4952384;29;19923;-79
2022/01/19 01:53:32;;;;;;;;;;;;;;;19.94;39.62;102895.78;4946040;29;19926;-79
2022/01/19 01:56:04;;;;;;;;;;;;;;;19.93;39.69;102903.16;4952944;28;19918;-79
2022/01/19 01:58:31;;;;;;;;;;;;;;;19.92;39.45;102898.75;4950847;29;19929;-79
2022/01/19 02:00:56;;;;;;;;;;;;;;;19.89;39.63;102897.38;4953695;28;19932;-80
2022/01/19 02:03:22;;;;;;;;;;;;;;;19.89;39.47;102889.13;4954143;28;20005;-80
2022/01/19 02:08:39;;;;;;;;;;;;;;;19.87;39.63;102877.59;4951249;29;20543;-80
2022/01/19 02:22:15;;;;;;;;;;;;;;;19.83;39.46;102848.16;4939177;29;19922;-79
2022/01/19 02:24:44;;;;;;;;;;;;;;;19.82;39.71;102847.34;4953321;28;19934;-79
2022/01/19 02:41:17;;;;;;;;;;;;;;;19.77;39.63;102758.69;4949287;29;19981;-79
2022/01/19 02:43:46;;;;;;;;;;;;;;;19.77;39.60;102756.78;4968703;28;20329;-79
2022/01/19 02:51:39;;;;;;;;;;;;;;;19.73;39.56;102750.19;4952871;29;19929;-79
2022/01/19 02:54:04;;;;;;;;;;;;;;;19.72;39.43;102748.50;4953279;28;19919;-79
2022/01/19 02:56:34;;;;;;;;;;;;;;;19.72;39.36;102743.00;4953246;28;20291;-79
2022/01/19 02:59:12;;;;;;;;;;;;;;;19.71;39.61;102743.28;4953090;28;20375;-79
2022/01/19 03:09:57;;;;;;;;;;;;;;;19.67;39.35;102730.06;4958253;28;20009;-79
2022/01/19 03:12:22;;;;;;;;;;;;;;;19.66;39.31;102725.66;4954717;29;20017;-79
2022/01/19 03:14:48;;;;;;;;;;;;;;;19.65;39.60;102714.94;4956036;28;19922;-79
2022/01/19 03:17:13;;;;;;;;;;;;;;;19.64;39.46;102716.84;4956373;28;20379;-79
2022/01/19 03:19:38;;;;;;;;;;;;;;;19.64;39.38;102708.63;4955466;29;19933;-79
2022/01/19 03:22:03;;;;;;;;;;;;;;;19.64;39.47;102718.75;4956134;28;19926;-79
2022/01/19 03:24:37;;;;;;;;;;;;;;;19.62;39.36;102704.47;4971626;28;20423;-79
2022/01/19 03:27:03;;;;;;;;;;;;;;;19.61;39.45;102703.66;4939504;29;19926;-79
2022/01/19 03:29:28;;;;;;;;;;;;;;;19.61;39.46;102702.84;4955193;28;19997;-79
2022/01/19 03:31:53;;;;;;;;;;;;;;;19.60;39.66;102698.41;4954288;29;20375;-79
2022/01/19 03:34:20;;;;;;;;;;;;;;;19.60;39.41;102690.19;4954749;29;19989;-79
2022/01/19 03:36:45;;;;;;;;;;;;;;;19.59;39.30;102683.06;4956214;28;19926;-80
2022/01/19 03:39:10;;;;;;;;;;;;;;;19.58;39.29;102667.69;4952799;28;20264;-79
2022/01/19 03:41:35;;;;;;;;;;;;;;;19.57;39.32;102660.56;4954629;29;20326;-79
2022/01/19 03:44:01;;;;;;;;;;;;;;;19.57;39.47;102652.34;4955638;28;19927;-79
2022/01/19 03:46:33;;;;;;;;;;;;;;;19.56;39.35;102647.94;4955524;28;19919;-80
2022/01/19 03:49:09;;;;;;;;;;;;;;;19.56;39.43;102647.94;4954502;28;20287;-79
2022/01/19 03:51:34;;;;;;;;;;;;;;;19.54;39.49;102639.97;4955532;28;19922;-79
2022/01/19 03:53:59;;;;;;;;;;;;;;;19.53;39.05;102635.59;4956108;28;19945;-79
2022/01/19 03:56:24;;;;;;;;;;;;;;;19.54;39.42;102636.41;4956424;28;20379;-79
2022/01/19 03:58:50;;;;;;;;;;;;;;;19.51;39.25;102632.28;4938941;29;19945;-79
2022/01/19 04:01:15;;;;;;;;;;;;;;;19.51;39.28;102631.44;4954833;28;20281;-79
2022/01/19 04:06:17;;;;;;;;;;;;;;;19.51;39.32;102631.44;4955517;28;20294;-79
2022/01/19 04:08:42;;;;;;;;;;;;;;;19.48;39.34;102624.56;4939474;29;20327;-79
2022/01/19 04:11:08;;;;;;;;;;;;;;;19.49;39.33;102630.88;4954017;28;19978;-79
2022/01/19 04:13:44;;;;;;;;;;;;;;;19.48;39.19;102626.47;4954501;28;19920;-79
2022/01/19 04:16:10;;;;;;;;;;;;;;;19.48;39.23;102623.72;4954083;28;19965;-79
2022/01/19 04:18:35;;;;;;;;;;;;;;;19.46;39.30;102633.03;4956050;28;19965;-79
2022/01/19 04:21:02;;;;;;;;;;;;;;;19.46;39.33;102634.94;4953490;28;19925;-79
2022/01/19 04:23:27;;;;;;;;;;;;;;;19.45;39.25;102636.03;4938152;29;20286;-79
2022/01/19 04:25:52;;;;;;;;;;;;;;;19.44;39.22;102635.19;4969594;28;20427;-79
2022/01/19 04:28:18;;;;;;;;;;;;;;;19.43;39.27;102633.56;4953688;28;19926;-79
2022/01/19 04:30:43;;;;;;;;;;;;;;;19.43;39.30;102638.22;4950600;29;19927;-79
2022/01/19 04:33:13;;;;;;;;;;;;;;;19.42;39.28;102634.63;4952183;29;19926;-79
2022/01/19 04:35:50;;;;;;;;;;;;;;;19.42;39.09;102626.41;4955065;28;20371;-79
2022/01/19 05:05:07;;;;;;;;;;;;;;;19.34;39.21;102620.56;4953502;29;19930;-79
2022/01/19 05:08:36;;;;;;;;;;;;;;;19.33;39.13;102611.50;4952649;29;20017;-79
2022/01/19 05:15:46;;;;;;;;;;;;;;;19.31;39.14;102604.63;4954525;29;19973;-79
2022/01/19 05:18:12;;;;;;;;;;;;;;;19.30;39.30;102603.78;4954483;28;19926;-79
2022/01/19 05:20:37;;;;;;;;;;;;;;;19.30;39.22;102602.97;4950655;29;20361;-79
2022/01/19 05:23:02;;;;;;;;;;;;;;;19.29;39.55;102602.16;4952520;28;19923;-79
2022/01/19 05:25:27;;;;;;;;;;;;;;;19.29;39.43;102602.16;4952915;29;19926;-79
2022/01/19 05:27:52;;;;;;;;;;;;;;;19.28;39.19;102595.03;4954874;28;19922;-79
2022/01/19 05:30:18;;;;;;;;;;;;;;;19.27;39.10;102590.59;4953638;29;19926;-79
2022/01/19 05:32:44;;;;;;;;;;;;;;;19.28;39.20;102589.53;4953387;28;19923;-79
2022/01/19 05:35:09;;;;;;;;;;;;;;;19.27;39.31;102592.53;4953079;29;20298;-79
2022/01/19 05:37:36;;;;;;;;;;;;;;;19.26;39.23;102583.47;4951687;28;19919;-79
2022/01/19 05:40:06;;;;;;;;;;;;;;;19.26;39.38;102582.66;4952864;29;20283;-79
2022/01/19 05:42:31;;;;;;;;;;;;;;;19.26;39.36;102580.75;4966906;28;19929;-79
2022/01/19 05:44:57;;;;;;;;;;;;;;;19.26;39.25;102574.44;4954279;28;20287;-79
2022/01/19 05:47:22;;;;;;;;;;;;;;;19.26;39.21;102577.19;4952140;28;19934;-79
2022/01/19 05:49:47;;;;;;;;;;;;;;;19.24;39.24;102574.69;4952515;29;20275;-79
2022/01/19 05:52:13;;;;;;;;;;;;;;;19.24;39.29;102574.69;4936553;29;19929;-80
2022/01/19 05:54:39;;;;;;;;;;;;;;;19.23;39.28;102587.56;4954129;28;19926;-79
2022/01/19 05:57:04;;;;;;;;;;;;;;;19.23;39.20;102581.25;4952755;29;20348;-79
2022/01/19 05:59:29;;;;;;;;;;;;;;;19.23;39.26;102575.78;4967425;28;20450;-79
2022/01/19 06:01:55;;;;;;;;;;;;;;;19.21;39.33;102578.75;4955070;28;19922;-81
2022/01/19 06:04:21;;;;;;;;;;;;;;;19.21;39.43;102581.50;4952404;29;19930;-79
2022/01/19 06:06:47;;;;;;;;;;;;;;;19.20;39.34;102579.00;4952971;29;19933;-79
2022/01/19 06:11:56;;;;;;;;;;;;;;;19.19;39.41;102580.94;4953971;29;19978;-79
2022/01/19 06:14:21;;;;;;;;;;;;;;;19.18;39.13;102571.06;4952119;28;20287;-79
2022/01/19 06:16:47;;;;;;;;;;;;;;;19.18;39.38;102572.97;4965593;28;19919;-79
2022/01/19 06:19:14;;;;;;;;;;;;;;;19.18;39.37;102559.28;4944563;29;19934;-79
2022/01/19 06:21:39;;;;;;;;;;;;;;;19.17;39.36;102552.94;4954081;28;19973;-80
2022/01/19 06:24:04;;;;;;;;;;;;;;;19.17;39.42;102552.13;4952911;29;19922;-79
2022/01/19 06:26:30;;;;;;;;;;;;;;;19.16;39.26;102548.56;4935555;28;20286;-79
2022/01/19 06:28:55;;;;;;;;;;;;;;;19.15;39.32;102544.19;4950892;29;19981;-78
2022/01/19 06:31:20;;;;;;;;;;;;;;;19.15;39.35;102546.06;4953018;28;19923;-82
2022/01/19 06:33:45;;;;;;;;;;;;;;;19.16;39.28;102531.31;4951955;28;20033;-81
2022/01/19 06:36:11;;;;;;;;;;;;;;;19.15;39.30;102527.75;4939850;29;19937;-81
2022/01/19 06:38:36;;;;;;;;;;;;;;;19.15;39.44;102527.75;4955697;29;19926;-82
2022/01/19 06:41:01;;;;;;;;;;;;;;;19.15;39.37;102518.69;4939029;29;20422;-82
2022/01/19 06:43:26;;;;;;;;;;;;;;;19.15;39.48;102516.81;4953412;29;19918;-78
2022/01/19 06:45:54;;;;;;;;;;;;;;;19.16;39.70;102512.13;4940028;29;19930;-82
2022/01/19 06:48:19;;;;;;;;;;;;;;;19.16;39.88;102506.66;4956955;28;20375;-81
2022/01/19 06:50:45;;;;;;;;;;;;;;;19.16;40.07;102501.19;4957011;28;19982;-81
2022/01/19 06:53:10;;;;;;;;;;;;;;;19.17;39.94;102503.66;4952754;28;20308;-79
2022/01/19 06:55:35;;;;;;;;;;;;;;;19.18;40.07;102502.59;4951315;29;19927;-80
2022/01/19 06:58:00;;;;;;;;;;;;;;;19.18;40.17;102502.59;4955948;28;19974;-79
2022/01/19 07:00:26;;;;;;;;;;;;;;;19.18;40.15;102491.63;4971402;28;19953;-79
2022/01/19 07:02:53;;;;;;;;;;;;;;;19.19;40.22;102492.44;4955504;28;19992;-80
2022/01/19 07:05:18;;;;;;;;;;;;;;;19.20;40.27;102485.88;4955028;29;19989;-82
2022/01/19 07:07:43;;;;;;;;;;;;;;;19.19;40.27;102487.78;4971547;28;19923;-79
2022/01/19 07:10:09;;;;;;;;;;;;;;;19.19;40.33;102490.53;4955294;29;20393;-80
2022/01/19 07:12:34;;;;;;;;;;;;;;;19.19;40.23;102495.19;4954857;29;19960;-80
2022/01/19 07:15:00;;;;;;;;;;;;;;;19.19;40.41;102485.03;4954811;29;20370;-80
2022/01/19 07:17:25;;;;;;;;;;;;;;;19.20;40.42;102488.59;4955056;29;19962;-80
2022/01/19 07:19:50;;;;;;;;;;;;;;;19.19;40.17;102489.69;4943504;29;19922;-79
2022/01/19 07:22:16;;;;;;;;;;;;;;;19.19;40.21;102485.03;4939471;29;19937;-80
2022/01/19 07:24:41;;;;;;;;;;;;;;;19.19;40.32;102482.31;4939279;29;20331;-80
2022/01/19 07:27:07;;;;;;;;;;;;;;;19.19;40.41;102476.81;4954428;28;19927;-80
2022/01/19 07:29:32;;;;;;;;;;;;;;;19.19;40.23;102476.00;4970842;28;20314;-84
2022/01/19 07:31:58;;;;;;;;;;;;;;;19.18;40.40;102477.94;4949605;29;19930;-83
2022/01/19 07:34:23;;;;;;;;;;;;;;;19.19;40.49;102474.09;4968219;28;20382;-82
2022/01/19 07:36:49;;;;;;;;;;;;;;;19.19;40.46;102474.09;4952229;28;19927;-84
2022/01/19 07:39:14;;;;;;;;;;;;;;;19.21;40.61;102471.09;4968844;28;20030;-80
2022/01/19 07:41:39;;;;;;;;;;;;;;;19.20;40.54;102478.50;4954085;28;19954;-79
2022/01/19 07:44:05;;;;;;;;;;;;;;;19.22;40.51;102476.31;4954819;28;20294;-79
2022/01/19 07:46:31;;;;;;;;;;;;;;;19.22;40.66;102473.56;4952884;28;19930;-82
2022/01/19 07:48:56;;;;;;;;;;;;;;;19.22;40.47;102479.03;4965446;28;20502;-81
2022/01/19 07:51:21;;;;;;;;;;;;;;;19.22;40.33;102475.47;4968142;28;19927;-81
2022/01/19 07:53:47;;;;;;;;;;;;;;;19.21;40.54;102469.19;4967834;28;19937;-82
2022/01/19 07:56:12;;;;;;;;;;;;;;;19.22;40.58;102470.00;4951492;29;19969;-81
2022/01/19 07:58:37;;;;;;;;;;;;;;;19.20;40.56;102469.44;4968254;28;20347;-84
2022/01/19 08:01:02;;;;;;;;;;;;;;;19.22;40.44;102464.53;4952278;28;19919;-80
2022/01/19 08:03:28;;;;;;;;;;;;;;;19.22;40.41;102457.13;4953436;28;20005;-83
2022/01/19 08:05:53;;;;;;;;;;;;;;;19.23;40.32;102455.25;4953013;28;20442;-83
2022/01/19 08:08:18;;;;;;;;;;;;;;;19.25;40.32;102458.53;4957261;28;19941;-81
2022/01/19 08:10:45;;;;;;;;;;;;;;;19.26;40.49;102449.22;4967347;28;20020;-82
2022/01/19 08:13:10;;;;;;;;;;;;;;;19.28;40.36;102449.81;4952631;28;20028;-81
2022/01/19 08:15:36;;;;;;;;;;;;;;;19.31;40.30;102456.69;4953138;28;20341;-82
2022/01/19 08:18:01;;;;;;;;;;;;;;;19.32;40.53;102461.06;4953006;28;20643;-82
2022/01/19 08:20:27;;;;;;;;;;;;;;;19.33;40.39;102458.06;4952943;28;19926;-81
2022/01/19 08:22:52;;;;;;;;;;;;;;;19.36;40.34;102457.53;4950925;28;19927;-81
2022/01/19 08:25:17;;;;;;;;;;;;;;;19.39;40.25;102450.72;4949903;29;19969;-81
2022/01/19 08:27:43;;;;;;;;;;;;;;;19.41;40.38;102443.06;4953091;28;19966;-81
2022/01/19 08:30:09;;;;;;;;;;;;;;;19.43;40.34;102447.19;4967453;28;20004;-81
2022/01/19 08:32:37;;;;;;;;;;;;;;;19.45;40.41;102442.28;4950060;29;19930;-80
2022/01/19 08:35:04;;;;;;;;;;;;;;;19.48;40.20;102445.56;4967766;28;19929;-84
2022/01/19 08:37:29;;;;;;;;;;;;;;;19.49;40.21;102447.25;4952000;28;19957;-83
2022/01/19 08:39:54;;;;;;;;;;;;;;;19.52;40.06;102443.97;4936249;29;20011;-83
2022/01/19 08:42:20;;;;;;;;;;;;;;;19.54;40.22;102425.34;4949502;29;19926;-83
2022/01/19 08:44:45;;;;;;;;;;;;;;;19.55;40.33;102427.81;4950161;29;20140;-84
2022/01/19 08:47:10;;;;;;;;;;;;;;;19.56;40.11;102418.53;4951629;29;19926;-82
2022/01/19 08:49:36;;;;;;;;;;;;;;;19.58;40.09;102413.63;4951212;28;19927;-82
2022/01/19 08:52:02;;;;;;;;;;;;;;;19.60;40.20;102414.16;4952394;28;19927;-82
2022/01/19 08:54:28;;;;;;;;;;;;;;;19.62;40.15;102416.63;4952061;28;20260;-83
2022/01/19 08:56:54;;;;;;;;;;;;;;;19.63;40.07;102412.78;4948848;28;19934;-84
2022/01/19 08:59:22;;;;;;;;;;;;;;;19.64;40.31;102415.28;4950008;28;19926;-86
2022/01/19 09:01:47;;;;;;;;;;;;;;;19.66;40.10;102415.03;4955151;28;20390;-85
2022/01/19 09:04:13;;;;;;;;;;;;;;;19.66;40.22;102413.13;4952222;28;19926;-86
2022/01/19 09:06:38;;;;;;;;;;;;;;;19.68;40.02;102418.38;4950416;28;19973;-85
2022/01/19 09:09:03;;;;;;;;;;;;;;;19.69;40.04;102420.03;4950392;29;19926;-85
2022/01/19 09:11:29;;;;;;;;;;;;;;;19.70;40.08;102412.63;4950118;29;19926;-84
2022/01/19 09:13:54;;;;;;;;;;;;;;;19.71;39.90;102409.63;4952451;28;19937;-82
2022/01/19 09:16:19;;;;;;;;;;;;;;;19.72;39.81;102411.25;4947993;29;19941;-83
2022/01/19 09:18:45;;;;;;;;;;;;;;;19.73;39.84;102406.59;4947777;29;19922;-82
2022/01/19 09:21:10;;;;;;;;;;;;;;;19.73;39.82;102404.72;4949188;28;19926;-80
2022/01/19 09:23:37;;;;;;;;;;;;;;;19.74;39.88;102397.31;4949069;28;20018;-83
2022/01/19 09:26:02;;;;;;;;;;;;;;;19.75;39.87;102404.41;4951188;28;19926;-82
2022/01/19 09:28:27;;;;;;;;;;;;;;;19.75;39.82;102402.50;4948650;28;20057;-82
2022/01/19 09:30:53;;;;;;;;;;;;;;;19.76;39.92;102392.38;4950230;28;20038;-82
2022/01/19 09:33:23;;;;;;;;;;;;;;;19.76;39.67;102384.97;4948100;28;19931;-85
2022/01/19 09:38:18;;;;;;;;;;;;;;;19.78;39.71;102376.47;4963845;28;19993;-83
2022/01/19 09:40:44;;;;;;;;;;;;;;;19.78;39.77;102360.88;4944984;28;19982;-83
2022/01/19 09:43:09;;;;;;;;;;;;;;;19.78;39.67;102360.00;4948395;28;19922;-83
2022/01/19 09:45:34;;;;;;;;;;;;;;;19.78;39.71;102358.13;4948311;28;19966;-83
2022/01/19 09:48:00;;;;;;;;;;;;;;;19.78;39.69;102363.59;4950779;28;19930;-83
2022/01/19 09:50:25;;;;;;;;;;;;;;;19.79;39.60;102356.19;4950208;28;19934;-82
2022/01/19 09:52:51;;;;;;;;;;;;;;;19.79;39.40;102340.56;4947367;28;20017;-83
2022/01/19 09:55:16;;;;;;;;;;;;;;;19.79;39.51;102335.09;4948441;29;19946;-87
2022/01/19 09:57:41;;;;;;;;;;;;;;;19.80;39.23;102331.25;4928992;29;19926;-84
2022/01/19 10:00:07;;;;;;;;;;;;;;;19.81;39.62;102324.69;4947605;29;19926;-83
2022/01/19 10:02:32;;;;;;;;;;;;;;;19.81;39.57;102321.94;4947014;28;19957;-84
2022/01/19 10:05:04;;;;;;;;;;;;;;;19.82;39.58;102320.03;4948279;29;20033;-83
2022/01/19 10:07:29;;;;;;;;;;;;;;;19.82;39.54;102320.84;4963717;28;19926;-82
2022/01/19 10:09:59;;;;;;;;;;;;;;;19.82;39.37;102312.59;4952745;28;20269;-82
2022/01/19 10:18:14;;;;;;;;;;;;;;;19.86;39.30;102307.44;4951424;29;19929;-81
2022/01/19 10:20:39;;;;;;;;;;;;;;;19.86;39.36;102312.91;4949960;29;19923;-80
2022/01/19 10:23:05;;;;;;;;;;;;;;;19.87;39.23;102320.88;4968086;28;20386;-81
2022/01/19 10:25:46;;;;;;;;;;;;;;;19.88;39.23;102321.69;4954023;28;19922;-80
2022/01/19 10:28:12;;;;;;;;;;;;;;;19.88;39.39;102322.53;4951917;29;19962;-81
2022/01/19 10:30:37;;;;;;;;;;;;;;;19.88;39.35;102317.03;4942543;29;19980;-81
2022/01/19 10:33:02;;;;;;;;;;;;;;;19.89;39.54;102312.38;4965813;28;20383;-80
2022/01/19 10:35:32;;;;;;;;;;;;;;;19.89;39.27;102318.69;4951092;28;19922;-81
2022/01/19 10:38:05;;;;;;;;;;;;;;;19.91;39.14;102303.88;4949375;29;19923;-81
2022/01/19 10:40:30;;;;;;;;;;;;;;;19.90;39.02;102300.31;4967186;28;20057;-83
2022/01/19 10:42:56;;;;;;;;;;;;;;;19.91;39.06;102293.75;4952395;28;20045;-83
2022/01/19 10:45:21;;;;;;;;;;;;;;;19.91;39.05;102291.00;4951420;28;19922;-83
2022/01/19 10:47:53;;;;;;;;;;;;;;;19.93;39.10;102285.22;4951107;29;19926;-82
2022/01/19 10:50:21;;;;;;;;;;;;;;;19.93;39.32;102290.72;4951746;28;19936;-82
2022/01/19 10:52:46;;;;;;;;;;;;;;;19.94;39.12;102286.91;4958612;28;19919;-81
2022/01/19 10:55:27;;;;;;;;;;;;;;;19.95;39.06;102291.28;4954331;28;19929;-83
2022/01/19 10:57:53;;;;;;;;;;;;;;;19.94;38.99;102282.22;4953847;28;20383;-83
2022/01/19 11:00:21;;;;;;;;;;;;;;;19.95;38.99;102274.81;4955179;28;19918;-83
2022/01/19 11:02:47;;;;;;;;;;;;;;;19.94;38.96;102270.44;4950168;28;19925;-82
2022/01/19 11:05:13;;;;;;;;;;;;;;;19.94;38.97;102265.78;4953033;29;20380;-84
2022/01/19 11:07:41;;;;;;;;;;;;;;;19.95;39.17;102267.41;4952234;28;19922;-84
2022/01/19 11:10:18;;;;;;;;;;;;;;;19.95;39.05;102261.94;4953826;28;19933;-84
2022/01/19 11:12:48;;;;;;;;;;;;;;;19.96;39.10;102255.38;4952365;28;20334;-81
2022/01/19 11:15:15;;;;;;;;;;;;;;;19.97;38.88;102242.47;4954365;28;19947;-81
2022/01/19 11:17:41;;;;;;;;;;;;;;;19.97;38.84;102237.81;4968494;28;19923;-80
2022/01/19 11:20:08;;;;;;;;;;;;;;;19.97;38.86;102235.06;4951024;28;20291;-82
2022/01/19 11:23:03;;;;;;;;;;;;;;;19.99;38.74;102230.13;4954618;28;19934;-79
2022/01/19 11:25:47;;;;;;;;;;;;;;;20.00;39.16;102230.97;4952036;28;19922;-80
2022/01/19 11:28:24;;;;;;;;;;;;;;;20.00;38.64;102225.47;4949495;29;19918;-79
2022/01/19 11:30:49;;;;;;;;;;;;;;;20.00;38.76;102223.53;4953025;28;19965;-80
2022/01/19 11:33:28;;;;;;;;;;;;;;;20.00;38.68;102212.56;4952978;28;19969;-81
2022/01/19 11:36:17;;;;;;;;;;;;;;;20.00;38.59;102212.56;4953156;28;19949;-81
2022/01/19 11:38:44;;;;;;;;;;;;;;;20.01;38.77;102219.72;4967480;28;20322;-80
2022/01/19 11:41:09;;;;;;;;;;;;;;;20.02;38.77;102215.06;4948654;28;19930;-81
2022/01/19 11:43:37;;;;;;;;;;;;;;;20.02;38.70;102215.88;4952756;29;19918;-80
2022/01/19 11:46:03;;;;;;;;;;;;;;;20.03;38.85;102213.94;4954260;28;20402;-83
2022/01/19 11:48:43;;;;;;;;;;;;;;;20.03;38.82;102200.25;4952815;29;19929;-83
2022/01/19 11:51:24;;;;;;;;;;;;;;;20.04;38.81;102188.19;4967040;28;19965;-81
2022/01/19 11:54:08;;;;;;;;;;;;;;;20.04;38.65;102166.25;4952861;28;19925;-81
2022/01/19 11:56:53;;;;;;;;;;;;;;;20.03;38.77;102162.69;4952271;29;19922;-81
2022/01/19 11:59:18;;;;;;;;;;;;;;;20.05;38.65;102167.88;4957998;28;20350;-80
2022/01/19 12:01:44;;;;;;;;;;;;;;;20.05;38.72;102162.41;4951072;28;20032;-81
2022/01/19 12:04:18;;;;;;;;;;;;;;;20.06;38.71;102147.59;4952642;29;20058;-82
2022/01/19 12:06:43;;;;;;;;;;;;;;;20.06;38.43;102147.59;4968317;28;20426;-85
2022/01/19 12:09:11;;;;;;;;;;;;;;;20.06;38.52;102137.44;4948753;29;20002;-87
2022/01/19 12:11:38;;;;;;;;;;;;;;;20.06;38.65;102131.16;4966935;28;20285;-84
2022/01/19 12:17:04;;;;;;;;;;;;;;;20.07;38.48;102125.38;4950127;29;20047;-85
2022/01/19 12:19:39;;;;;;;;;;;;;;;20.08;38.57;102129.78;4968333;28;19922;-83
2022/01/19 12:22:24;;;;;;;;;;;;;;;20.08;38.58;102126.19;4951571;28;19933;-83
2022/01/19 12:25:00;;;;;;;;;;;;;;;20.08;38.50;102112.47;4948891;29;19930;-83
2022/01/19 12:27:33;;;;;;;;;;;;;;;20.08;38.34;102110.56;4951166;28;19980;-84
2022/01/19 12:29:58;;;;;;;;;;;;;;;20.09;38.45;102108.66;4952938;28;19959;-83
2022/01/19 12:32:26;;;;;;;;;;;;;;;20.09;38.54;102103.16;4966528;28;20457;-84
2022/01/19 12:34:53;;;;;;;;;;;;;;;20.09;38.34;102097.69;4950619;28;19926;-82
2022/01/19 12:37:34;;;;;;;;;;;;;;;20.09;38.46;102093.00;4968724;28;19991;-86
2022/01/19 12:40:00;;;;;;;;;;;;;;;20.10;38.38;102088.34;4949793;28;19923;-83
2022/01/19 12:42:39;;;;;;;;;;;;;;;20.09;38.44;102082.03;4947923;28;19922;-84
2022/01/19 12:45:18;;;;;;;;;;;;;;;20.10;38.52;102082.84;4951188;28;19981;-83
2022/01/19 12:47:46;;;;;;;;;;;;;;;20.10;38.57;102082.84;4951462;28;19969;-84
2022/01/19 12:50:11;;;;;;;;;;;;;;;20.11;38.27;102084.50;4949182;28;19926;-85
2022/01/19 12:52:44;;;;;;;;;;;;;;;20.11;38.25;102084.50;4964690;28;19929;-83
2022/01/19 12:55:12;;;;;;;;;;;;;;;20.10;38.28;102077.38;4951431;29;19929;-85
2022/01/19 12:57:38;;;;;;;;;;;;;;;20.10;38.28;102069.13;4950943;28;19993;-85
2022/01/19 13:00:08;;;;;;;;;;;;;;;20.09;38.35;102054.59;4950974;28;20014;-84
2022/01/19 13:02:34;;;;;;;;;;;;;;;20.10;38.22;102060.91;4950743;28;20014;-84
2022/01/19 13:05:06;;;;;;;;;;;;;;;20.09;38.33;102060.09;4947310;29;20005;-86
2022/01/19 13:07:32;;;;;;;;;;;;;;;20.10;38.34;102039.78;4950345;28;20045;-84
2022/01/19 13:12:56;;;;;;;;;;;;;;;20.09;38.11;102042.81;4949282;28;20066;-83
2022/01/19 13:15:39;;;;;;;;;;;;;;;20.08;38.46;102036.50;4947720;28;20009;-84
2022/01/19 13:18:04;;;;;;;;;;;;;;;20.08;38.42;102039.25;4954500;28;19930;-78
2022/01/19 13:20:31;;;;;;;;;;;;;;;20.09;38.20;102027.19;4949110;28;19930;-83
2022/01/19 13:22:56;;;;;;;;;;;;;;;20.09;38.35;102026.34;4950309;28;19918;-84
2022/01/19 13:25:23;;;;;;;;;;;;;;;20.09;38.26;102018.94;4948797;28;19965;-82
2022/01/19 13:27:49;;;;;;;;;;;;;;;20.10;38.28;102017.03;4949933;28;19933;-83
2022/01/19 13:30:14;;;;;;;;;;;;;;;20.10;38.14;102025.25;4964571;28;19974;-83
2022/01/19 13:32:40;;;;;;;;;;;;;;;20.10;38.15;102011.53;4950066;28;19950;-82
2022/01/19 13:35:07;;;;;;;;;;;;;;;20.10;38.11;102006.88;4948157;28;19930;-84
2022/01/19 13:37:48;;;;;;;;;;;;;;;20.12;38.37;102003.03;4954374;28;19915;-86
2022/01/19 13:40:18;;;;;;;;;;;;;;;20.11;38.18;102004.97;4950107;28;19922;-86
2022/01/19 13:42:51;;;;;;;;;;;;;;;20.11;38.30;101991.25;4953816;28;20383;-83
2022/01/19 13:45:27;;;;;;;;;;;;;;;20.13;38.20;101982.72;4948946;28;19922;-83
2022/01/19 13:48:06;;;;;;;;;;;;;;;20.12;38.11;101987.41;4949230;28;20037;-80
2022/01/19 13:50:33;;;;;;;;;;;;;;;20.14;38.19;101989.88;4949336;28;19922;-80
2022/01/19 13:53:00;;;;;;;;;;;;;;;20.14;38.18;101993.44;4948744;28;20005;-82
2022/01/19 13:55:26;;;;;;;;;;;;;;;20.14;38.21;101990.69;4964014;28;19930;-83
2022/01/19 13:58:02;;;;;;;;;;;;;;;20.15;37.93;101989.56;4948851;28;19985;-84
2022/01/19 14:00:27;;;;;;;;;;;;;;;20.15;38.08;101977.78;4948882;28;20311;-84
2022/01/19 14:02:58;;;;;;;;;;;;;;;20.15;38.29;101967.63;4948602;28;20746;-84
2022/01/19 14:05:41;;;;;;;;;;;;;;;20.15;38.15;101962.16;4962086;28;20006;-83
2022/01/19 14:08:08;;;;;;;;;;;;;;;20.16;37.98;101960.22;4948136;28;19922;-83
2022/01/19 14:10:43;;;;;;;;;;;;;;;20.17;38.18;101962.69;4948696;28;19914;-83
2022/01/19 14:13:26;;;;;;;;;;;;;;;20.17;38.04;101954.47;4964472;28;20233;-84
2022/01/19 14:15:52;;;;;;;;;;;;;;;20.19;38.02;101959.69;4948461;28;19973;-82